Terminal Aerodrome Forecast
Issued by NWS Sterling, VA

Home | Current Version | Previous Version | Text Only | Print | Product List | Glossary On
Versions: 1 2 3 4 5 6 7 8 9 10 11 12 13 14 15 16
250
FTUS41 KLWX 271134
TAFMRB
TAF
KMRB 271134Z 2712/2812 00000KT 3SM BR BKN004
     FM271400 00000KT P6SM BKN008
     FM271600 23004KT P6SM BKN050
     FM271700 24008KT P6SM BKN050
     FM272100 24007KT P6SM SCT050
     FM272300 25005KT P6SM BKN050=

USA.gov is the U.S. government's official web portal to all federal, state and local government web resources and services.